Time;durP1;ratioP1;P1;durP2;ratioP2;P2;SDS_P1;SDS_P2;PMS_P1;PMS_P2;Temp;Humidity;BMP_temperature;BMP_pressure;BME280_temperature;BME280_humidity;BME280_pressure;Samples;Min_cycle;Max_cycle;Signal;HPM_P1;HPM_P2
2023/07/27 00:00:43;;;;;;;;;;;;;;;;;;5083918;27;90354;-71
2023/07/27 00:03:08;;;;;;;;;;;;;;;;;;5080947;27;90359;-71
2023/07/27 00:05:34;;;;;;;;;;;;;;;;;;5079065;27;90550;-71
2023/07/27 00:07:59;;;;;;;;;;;;;;;;;;5080209;27;89869;-71
2023/07/27 00:10:24;;;;;;;;;;;;;;;;;;5082751;27;90538;-71
2023/07/27 00:12:50;;;;;;;;;;;;;;;;;;5080586;27;89842;-70
2023/07/27 00:15:15;;;;;;;;;;;;;;;;;;5077942;27;89667;-71
2023/07/27 00:17:40;;;;;;;;;;;;;;;;;;5079518;27;89797;-71
2023/07/27 00:20:06;;;;;;;;;;;;;;;;;;5075435;27;89019;-71
2023/07/27 00:22:31;;;;;;;;;;;;;;;;;;5079661;27;88959;-72
2023/07/27 00:24:56;;;;;;;;;;;;;;;;;;5078805;27;89482;-70
2023/07/27 00:27:21;;;;;;;;;;;;;;;;;;5084758;27;89659;-70
2023/07/27 00:29:46;;;;;;;;;;;;;;;;;;5086207;27;89788;-71
2023/07/27 00:32:12;;;;;;;;;;;;;;;;;;5083866;27;89017;-71
2023/07/27 00:34:37;;;;;;;;;;;;;;;;;;5085433;27;91440;-71
2023/07/27 00:37:02;;;;;;;;;;;;;;;;;;5080822;27;89180;-72
2023/07/27 00:39:27;;;;;;;;;;;;;;;;;;5078104;27;89164;-71
2023/07/27 00:41:52;;;;;;;;;;;;;;;;;;5085767;27;89502;-72
2023/07/27 00:44:18;;;;;;;;;;;;;;;;;;5086181;27;90868;-71
2023/07/27 00:46:43;;;;;;;;;;;;;;;;;;5087119;27;89946;-71
2023/07/27 00:49:08;;;;;;;;;;;;;;;;;;5084275;27;89654;-71
2023/07/27 00:51:35;;;;;;;;;;;;;;;;;;5085725;27;89455;-70
2023/07/27 00:54:00;;;;;;;;;;;;;;;;;;5082784;27;89447;-72
2023/07/27 00:56:26;;;;;;;;;;;;;;;;;;5083528;27;90235;-71
2023/07/27 00:58:51;;;;;;;;;;;;;;;;;;5087987;27;90276;-71
2023/07/27 01:01:17;;;;;;;;;;;;;;;;;;5087963;27;90474;-71
2023/07/27 01:03:42;;;;;;;;;;;;;;;;;;5082485;27;90114;-71
2023/07/27 01:06:08;;;;;;;;;;;;;;;;;;5084492;27;89190;-71
2023/07/27 01:08:33;;;;;;;;;;;;;;;;;;5085014;27;90373;-71
2023/07/27 01:11:02;;;;;;;;;;;;;;;;;;5079606;27;90392;-71
2023/07/27 01:13:30;;;;;;;;;;;;;;;;;;5080588;27;90309;-71
2023/07/27 01:15:58;;;;;;;;;;;;;;;;;;5083121;27;89196;-71
2023/07/27 01:18:27;;;;;;;;;;;;;;;;;;5082326;27;89021;-71
2023/07/27 01:21:00;;;;;;;;;;;;;;;;;;5080464;27;90266;-72
2023/07/27 01:23:43;;;;;;;;;;;;;;;;;;5083105;27;90224;-71
2023/07/27 01:26:27;;;;;;;;;;;;;;;;;;5081115;27;89591;-71
2023/07/27 01:29:04;;;;;;;;;;;;;;;;;;5075902;27;89384;-70
2023/07/27 01:31:43;;;;;;;;;;;;;;;;;;5084374;27;89214;-71
2023/07/27 01:34:37;;;;;;;;;;;;;;;;;;5079965;27;89494;-71
2023/07/27 01:37:03;;;;;;;;;;;;;;;;;;5064907;27;89385;-72
2023/07/27 01:39:30;;;;;;;;;;;;;;;;;;5084764;27;89645;-71
2023/07/27 01:41:56;;;;;;;;;;;;;;;;;;5078613;27;89640;-72
2023/07/27 01:44:22;;;;;;;;;;;;;;;;;;5082745;27;89183;-71
2023/07/27 01:46:48;;;;;;;;;;;;;;;;;;5080825;27;89338;-71
2023/07/27 01:49:13;;;;;;;;;;;;;;;;;;5080772;27;89062;-72
2023/07/27 01:51:40;;;;;;;;;;;;;;;;;;5080547;27;90307;-71
2023/07/27 01:54:06;;;;;;;;;;;;;;;;;;5083523;27;89855;-71
2023/07/27 01:56:33;;;;;;;;;;;;;;;;;;5079104;27;91286;-71
2023/07/27 01:58:58;;;;;;;;;;;;;;;;;;5074776;27;89268;-71
2023/07/27 02:01:24;;;;;;;;;;;;;;;;;;5086319;27;89042;-71
2023/07/27 02:03:50;;;;;;;;;;;;;;;;;;5082887;27;90248;-71
2023/07/27 02:06:15;;;;;;;;;;;;;;;;;;5080986;27;89770;-71
2023/07/27 02:08:40;;;;;;;;;;;;;;;;;;5077669;27;90811;-71
2023/07/27 02:11:07;;;;;;;;;;;;;;;;;;5084647;27;90170;-71
2023/07/27 02:13:42;;;;;;;;;;;;;;;;;;5086111;27;89602;-71
2023/07/27 02:16:39;;;;;;;;;;;;;;;;;;5083470;27;89765;-72
2023/07/27 02:19:05;;;;;;;;;;;;;;;;;;5037114;27;89231;-72
2023/07/27 02:21:31;;;;;;;;;;;;;;;;;;5081225;27;90723;-71
2023/07/27 02:23:58;;;;;;;;;;;;;;;;;;5077845;27;90206;-71
2023/07/27 02:26:23;;;;;;;;;;;;;;;;;;5078232;27;89139;-71
2023/07/27 02:28:49;;;;;;;;;;;;;;;;;;5079885;27;89470;-71
2023/07/27 02:31:14;;;;;;;;;;;;;;;;;;5078710;27;90365;-71
2023/07/27 02:33:39;;;;;;;;;;;;;;;;;;5084046;27;88942;-71
2023/07/27 02:36:04;;;;;;;;;;;;;;;;;;5080257;27;89872;-71
2023/07/27 02:38:29;;;;;;;;;;;;;;;;;;5074497;27;89090;-72
2023/07/27 02:40:55;;;;;;;;;;;;;;;;;;5081515;27;89483;-71
2023/07/27 02:43:20;;;;;;;;;;;;;;;;;;5078358;27;89279;-71
2023/07/27 02:45:45;;;;;;;;;;;;;;;;;;5078671;27;90409;-71
2023/07/27 02:48:11;;;;;;;;;;;;;;;;;;5086704;27;92413;-71
2023/07/27 02:50:36;;;;;;;;;;;;;;;;;;5078572;27;89710;-70
2023/07/27 02:53:01;;;;;;;;;;;;;;;;;;5082446;27;89032;-71
2023/07/27 02:55:26;;;;;;;;;;;;;;;;;;5081205;27;89480;-70
2023/07/27 02:57:51;;;;;;;;;;;;;;;;;;5082209;27;89274;-72
2023/07/27 03:00:17;;;;;;;;;;;;;;;;;;5081030;27;89524;-72
2023/07/27 03:02:42;;;;;;;;;;;;;;;;;;5081375;27;91040;-71
2023/07/27 03:05:07;;;;;;;;;;;;;;;;;;5074102;27;89397;-71
2023/07/27 03:07:32;;;;;;;;;;;;;;;;;;5073880;27;88974;-71
2023/07/27 03:09:58;;;;;;;;;;;;;;;;;;5082899;27;90067;-70
2023/07/27 03:12:23;;;;;;;;;;;;;;;;;;5080283;27;89026;-71
2023/07/27 03:14:48;;;;;;;;;;;;;;;;;;5081756;27;90258;-71
2023/07/27 03:17:13;;;;;;;;;;;;;;;;;;5083000;27;89803;-70
2023/07/27 03:19:39;;;;;;;;;;;;;;;;;;5086181;27;90099;-70
2023/07/27 03:22:04;;;;;;;;;;;;;;;;;;5080553;27;89261;-71
2023/07/27 03:24:29;;;;;;;;;;;;;;;;;;5078398;27;89727;-74
2023/07/27 03:26:54;;;;;;;;;;;;;;;;;;5072584;27;89851;-71
2023/07/27 03:29:20;;;;;;;;;;;;;;;;;;5079504;27;89838;-70
2023/07/27 03:31:45;;;;;;;;;;;;;;;;;;5081786;27;90253;-71
2023/07/27 03:34:11;;;;;;;;;;;;;;;;;;5076638;27;89527;-70
2023/07/27 03:36:36;;;;;;;;;;;;;;;;;;5082690;27;89864;-71
2023/07/27 03:39:01;;;;;;;;;;;;;;;;;;5073511;27;90443;-70
2023/07/27 03:41:27;;;;;;;;;;;;;;;;;;5077081;27;89446;-71
2023/07/27 03:43:52;;;;;;;;;;;;;;;;;;5077360;27;88988;-71
2023/07/27 03:46:17;;;;;;;;;;;;;;;;;;5075241;27;89982;-70
2023/07/27 03:48:43;;;;;;;;;;;;;;;;;;5073625;27;89277;-71
2023/07/27 03:51:08;;;;;;;;;;;;;;;;;;5074196;27;89181;-71
2023/07/27 03:53:33;;;;;;;;;;;;;;;;;;5074676;27;89620;-71
2023/07/27 03:56:01;;;;;;;;;;;;;;;;;;5079127;27;89623;-71
2023/07/27 03:58:26;;;;;;;;;;;;;;;;;;5081042;27;89908;-71
2023/07/27 04:00:52;;;;;;;;;;;;;;;;;;5081142;27;89121;-71
2023/07/27 04:03:17;;;;;;;;;;;;;;;;;;5072230;27;89870;-70
2023/07/27 04:05:42;;;;;;;;;;;;;;;;;;5075845;27;89330;-71
2023/07/27 04:08:07;;;;;;;;;;;;;;;;;;5077938;27;89699;-71
2023/07/27 04:10:33;;;;;;;;;;;;;;;;;;5075602;27;90898;-71
2023/07/27 04:12:58;;;;;;;;;;;;;;;;;;5074454;27;91240;-70
2023/07/27 04:15:24;;;;;;;;;;;;;;;;;;5077786;27;89655;-71
2023/07/27 04:17:49;;;;;;;;;;;;;;;;;;5073800;27;89120;-71
2023/07/27 04:20:14;;;;;;;;;;;;;;;;;;5079066;27;89491;-71
2023/07/27 04:22:40;;;;;;;;;;;;;;;;;;5079467;27;89079;-71
2023/07/27 04:25:05;;;;;;;;;;;;;;;;;;5071918;27;89514;-71
2023/07/27 04:27:30;;;;;;;;;;;;;;;;;;5077416;27;89128;-71
2023/07/27 04:29:56;;;;;;;;;;;;;;;;;;5074697;27;89097;-71
2023/07/27 04:32:21;;;;;;;;;;;;;;;;;;5075304;27;89811;-71
2023/07/27 04:34:46;;;;;;;;;;;;;;;;;;5077941;27;89582;-70
2023/07/27 04:37:12;;;;;;;;;;;;;;;;;;5073730;27;90293;-70
2023/07/27 04:39:37;;;;;;;;;;;;;;;;;;5078539;27;89595;-70
2023/07/27 04:42:02;;;;;;;;;;;;;;;;;;5079506;27;89128;-70
2023/07/27 04:44:27;;;;;;;;;;;;;;;;;;5074333;27;89598;-71
2023/07/27 04:46:53;;;;;;;;;;;;;;;;;;5076764;27;90342;-70
2023/07/27 04:49:18;;;;;;;;;;;;;;;;;;5076423;27;90254;-71
2023/07/27 04:51:44;;;;;;;;;;;;;;;;;;5083388;27;90542;-71
2023/07/27 04:54:09;;;;;;;;;;;;;;;;;;5075108;27;89121;-70
2023/07/27 04:56:34;;;;;;;;;;;;;;;;;;5077414;27;89735;-71
2023/07/27 04:58:59;;;;;;;;;;;;;;;;;;5074383;27;89567;-71
2023/07/27 05:01:25;;;;;;;;;;;;;;;;;;5076227;27;89154;-71
2023/07/27 05:03:51;;;;;;;;;;;;;;;;;;5079717;27;90399;-71
2023/07/27 05:06:16;;;;;;;;;;;;;;;;;;5069109;27;90376;-72
2023/07/27 05:08:41;;;;;;;;;;;;;;;;;;5075200;27;90125;-73
2023/07/27 05:11:06;;;;;;;;;;;;;;;;;;5077828;27;90538;-73
2023/07/27 05:13:32;;;;;;;;;;;;;;;;;;5072687;27;91217;-72
2023/07/27 05:15:58;;;;;;;;;;;;;;;;;;5080222;27;88945;-72
2023/07/27 05:18:23;;;;;;;;;;;;;;;;;;5082984;27;90964;-72
2023/07/27 05:20:48;;;;;;;;;;;;;;;;;;5075429;27;90016;-72
2023/07/27 05:23:13;;;;;;;;;;;;;;;;;;5074769;27;90243;-72
2023/07/27 05:25:38;;;;;;;;;;;;;;;;;;5077534;27;89277;-71
2023/07/27 05:28:04;;;;;;;;;;;;;;;;;;5073276;27;90403;-73
2023/07/27 05:30:29;;;;;;;;;;;;;;;;;;5082927;27;89511;-72
2023/07/27 05:32:54;;;;;;;;;;;;;;;;;;5080840;27;89741;-72
2023/07/27 05:35:19;;;;;;;;;;;;;;;;;;5078676;27;89939;-72
2023/07/27 05:37:46;;;;;;;;;;;;;;;;;;5075917;27;90141;-72
2023/07/27 05:40:14;;;;;;;;;;;;;;;;;;5081630;27;89375;-72
2023/07/27 05:42:40;;;;;;;;;;;;;;;;;;5080783;27;90196;-72
2023/07/27 05:45:05;;;;;;;;;;;;;;;;;;5086325;27;90911;-73
2023/07/27 05:47:31;;;;;;;;;;;;;;;;;;5075884;27;89363;-75
2023/07/27 05:49:58;;;;;;;;;;;;;;;;;;5079764;27;90134;-78
2023/07/27 05:52:23;;;;;;;;;;;;;;;;;;5080304;27;90221;-79
2023/07/27 05:54:48;;;;;;;;;;;;;;;;;;5077357;27;89447;-75
2023/07/27 05:57:13;;;;;;;;;;;;;;;;;;5077315;27;90130;-76
2023/07/27 05:59:38;;;;;;;;;;;;;;;;;;5081767;27;89239;-77
2023/07/27 06:02:04;;;;;;;;;;;;;;;;;;5080077;27;89522;-77
2023/07/27 06:04:29;;;;;;;;;;;;;;;;;;5076013;27;89729;-76
2023/07/27 06:06:54;;;;;;;;;;;;;;;;;;5081624;27;91007;-78
2023/07/27 06:09:20;;;;;;;;;;;;;;;;;;5073501;27;90103;-79
2023/07/27 06:11:45;;;;;;;;;;;;;;;;;;5074857;27;89454;-77
2023/07/27 06:14:10;;;;;;;;;;;;;;;;;;5075079;27;89099;-76
2023/07/27 06:16:36;;;;;;;;;;;;;;;;;;5079711;27;89743;-77
2023/07/27 06:19:01;;;;;;;;;;;;;;;;;;5074885;27;91260;-77
2023/07/27 06:21:26;;;;;;;;;;;;;;;;;;5079613;27;90075;-76
2023/07/27 06:23:51;;;;;;;;;;;;;;;;;;5081790;27;89099;-77
2023/07/27 06:26:16;;;;;;;;;;;;;;;;;;5073209;27;91387;-75
2023/07/27 06:28:41;;;;;;;;;;;;;;;;;;5080970;27;89446;-77
2023/07/27 06:31:07;;;;;;;;;;;;;;;;;;5074570;27;90082;-78
2023/07/27 06:33:32;;;;;;;;;;;;;;;;;;5076848;27;89719;-77
2023/07/27 06:35:57;;;;;;;;;;;;;;;;;;5078015;27;90861;-78
2023/07/27 06:38:22;;;;;;;;;;;;;;;;;;5078961;27;89793;-72
2023/07/27 06:40:48;;;;;;;;;;;;;;;;;;5080294;27;90902;-73
2023/07/27 06:43:13;;;;;;;;;;;;;;;;;;5077837;27;89539;-73
2023/07/27 06:45:38;;;;;;;;;;;;;;;;;;5074994;27;89652;-73
2023/07/27 06:48:04;;;;;;;;;;;;;;;;;;5080473;27;89029;-73
2023/07/27 06:50:29;;;;;;;;;;;;;;;;;;5081655;27;89655;-74
2023/07/27 06:52:54;;;;;;;;;;;;;;;;;;5078454;27;89588;-73
2023/07/27 06:55:19;;;;;;;;;;;;;;;;;;5075503;27;89476;-73
2023/07/27 06:57:45;;;;;;;;;;;;;;;;;;5075187;27;90087;-73
2023/07/27 07:00:10;;;;;;;;;;;;;;;;;;5077413;27;89162;-74
2023/07/27 07:02:35;;;;;;;;;;;;;;;;;;5079537;27;89676;-73
2023/07/27 07:05:01;;;;;;;;;;;;;;;;;;5074625;27;89349;-73
2023/07/27 07:07:27;;;;;;;;;;;;;;;;;;5071406;27;89252;-72
2023/07/27 07:09:52;;;;;;;;;;;;;;;;;;5077707;27;90508;-72
2023/07/27 07:12:17;;;;;;;;;;;;;;;;;;5083488;27;89675;-72
2023/07/27 07:14:42;;;;;;;;;;;;;;;;;;5078706;27;89435;-72
2023/07/27 07:17:08;;;;;;;;;;;;;;;;;;5079383;27;89338;-72
2023/07/27 07:19:33;;;;;;;;;;;;;;;;;;5077135;27;89500;-73
2023/07/27 07:21:59;;;;;;;;;;;;;;;;;;5083248;27;89693;-72
2023/07/27 07:24:24;;;;;;;;;;;;;;;;;;5079086;27;90006;-73
2023/07/27 07:26:49;;;;;;;;;;;;;;;;;;5078777;27;89331;-72
2023/07/27 07:29:14;;;;;;;;;;;;;;;;;;5082004;27;89535;-72
2023/07/27 07:31:39;;;;;;;;;;;;;;;;;;5075154;27;89285;-73
2023/07/27 07:34:05;;;;;;;;;;;;;;;;;;5077178;27;89413;-73
2023/07/27 07:36:30;;;;;;;;;;;;;;;;;;5083182;27;89082;-72
2023/07/27 07:38:55;;;;;;;;;;;;;;;;;;5077293;27;89119;-73
2023/07/27 07:41:20;;;;;;;;;;;;;;;;;;5079511;27;89790;-73
2023/07/27 07:43:45;;;;;;;;;;;;;;;;;;5079388;27;89996;-73
2023/07/27 07:46:11;;;;;;;;;;;;;;;;;;5080519;27;89136;-73
2023/07/27 07:48:36;;;;;;;;;;;;;;;;;;5086427;27;89916;-73
2023/07/27 07:51:02;;;;;;;;;;;;;;;;;;5073800;27;92214;-72
2023/07/27 07:53:27;;;;;;;;;;;;;;;;;;5083234;27;90856;-73
2023/07/27 07:55:52;;;;;;;;;;;;;;;;;;5081328;27;90301;-73
2023/07/27 07:58:17;;;;;;;;;;;;;;;;;;5077784;27;92086;-73
2023/07/27 08:00:42;;;;;;;;;;;;;;;;;;5074549;27;90382;-73
2023/07/27 08:03:08;;;;;;;;;;;;;;;;;;5080848;27;89085;-73
2023/07/27 08:05:33;;;;;;;;;;;;;;;;;;5078054;27;89406;-73
2023/07/27 08:07:58;;;;;;;;;;;;;;;;;;5079214;27;90528;-73
2023/07/27 08:10:24;;;;;;;;;;;;;;;;;;5081099;27;90006;-73
2023/07/27 08:12:49;;;;;;;;;;;;;;;;;;5074974;27;89608;-73
2023/07/27 08:15:15;;;;;;;;;;;;;;;;;;5082373;27;89506;-73
2023/07/27 08:17:40;;;;;;;;;;;;;;;;;;5085087;27;89008;-72
2023/07/27 08:20:05;;;;;;;;;;;;;;;;;;5084038;27;89500;-73
2023/07/27 08:22:31;;;;;;;;;;;;;;;;;;5082803;27;89171;-73
2023/07/27 08:24:56;;;;;;;;;;;;;;;;;;5082418;27;89939;-73
2023/07/27 08:27:21;;;;;;;;;;;;;;;;;;5071907;27;89549;-73
2023/07/27 08:29:46;;;;;;;;;;;;;;;;;;5075666;27;89521;-73
2023/07/27 08:32:11;;;;;;;;;;;;;;;;;;5079104;27;89364;-74
2023/07/27 08:34:37;;;;;;;;;;;;;;;;;;5073910;27;89520;-74
2023/07/27 08:37:02;;;;;;;;;;;;;;;;;;5074368;27;89479;-73
2023/07/27 08:39:27;;;;;;;;;;;;;;;;;;5075552;27;90596;-73
2023/07/27 08:41:53;;;;;;;;;;;;;;;;;;5078470;27;92482;-73
2023/07/27 08:44:18;;;;;;;;;;;;;;;;;;5074628;27;89527;-73
2023/07/27 08:46:45;;;;;;;;;;;;;;;;;;5079840;27;89614;-74
2023/07/27 08:49:12;;;;;;;;;;;;;;;;;;5081544;27;89773;-73
2023/07/27 08:51:39;;;;;;;;;;;;;;;;;;5082034;27;89744;-73
2023/07/27 08:54:04;;;;;;;;;;;;;;;;;;5075149;27;90312;-73
2023/07/27 08:56:30;;;;;;;;;;;;;;;;;;5077706;27;89807;-73
2023/07/27 08:58:55;;;;;;;;;;;;;;;;;;5088052;27;89491;-73
2023/07/27 09:01:20;;;;;;;;;;;;;;;;;;5077681;27;89736;-73
2023/07/27 09:03:46;;;;;;;;;;;;;;;;;;5081333;27;89026;-73
2023/07/27 09:06:11;;;;;;;;;;;;;;;;;;5082802;27;89294;-74
2023/07/27 09:08:36;;;;;;;;;;;;;;;;;;5083859;27;90233;-73
2023/07/27 09:11:05;;;;;;;;;;;;;;;;;;5078143;27;89114;-73
2023/07/27 09:13:31;;;;;;;;;;;;;;;;;;5084449;27;89513;-73
2023/07/27 09:15:56;;;;;;;;;;;;;;;;;;5079191;27;89563;-73
2023/07/27 09:18:21;;;;;;;;;;;;;;;;;;5078065;27;89028;-73
2023/07/27 09:20:47;;;;;;;;;;;;;;;;;;5082389;27;89516;-74
2023/07/27 09:23:18;;;;;;;;;;;;;;;;;;5072172;27;88965;-73
2023/07/27 09:25:52;;;;;;;;;;;;;;;;;;5087136;27;89393;-73
2023/07/27 09:28:22;;;;;;;;;;;;;;;;;;5073089;27;89081;-73
2023/07/27 09:30:50;;;;;;;;;;;;;;;;;;5079137;27;89092;-73
2023/07/27 09:33:20;;;;;;;;;;;;;;;;;;5074264;27;93067;-73
2023/07/27 09:35:48;;;;;;;;;;;;;;;;;;5079244;27;89509;-73
2023/07/27 09:38:13;;;;;;;;;;;;;;;;;;5082471;27;89394;-73
2023/07/27 09:40:38;;;;;;;;;;;;;;;;;;5085482;27;89948;-73
2023/07/27 09:43:07;;;;;;;;;;;;;;;;;;5079938;27;89432;-73
2023/07/27 09:45:37;;;;;;;;;;;;;;;;;;5083982;27;90592;-73
2023/07/27 09:48:02;;;;;;;;;;;;;;;;;;5079539;27;90595;-73
2023/07/27 09:50:28;;;;;;;;;;;;;;;;;;5082205;27;89128;-73
2023/07/27 09:52:54;;;;;;;;;;;;;;;;;;5078741;27;89682;-74
2023/07/27 09:55:20;;;;;;;;;;;;;;;;;;5077453;27;89210;-73
2023/07/27 09:57:46;;;;;;;;;;;;;;;;;;5082583;27;89082;-73
2023/07/27 10:00:11;;;;;;;;;;;;;;;;;;5082131;27;89874;-73
2023/07/27 10:02:37;;;;;;;;;;;;;;;;;;5082733;27;89691;-73
2023/07/27 10:05:03;;;;;;;;;;;;;;;;;;5083114;27;89795;-73
2023/07/27 10:07:28;;;;;;;;;;;;;;;;;;5083737;27;90275;-73
2023/07/27 10:10:12;;;;;;;;;;;;;;;;;;5078343;27;89414;-73
2023/07/27 10:12:38;;;;;;;;;;;;;;;;;;5081685;27;89559;-73
2023/07/27 10:15:24;;;;;;;;;;;;;;;;;;5077576;27;90274;-73
2023/07/27 10:17:51;;;;;;;;;;;;;;;;;;5084762;27;89036;-73
2023/07/27 10:20:20;;;;;;;;;;;;;;;;;;5079933;27;89781;-73
2023/07/27 10:22:49;;;;;;;;;;;;;;;;;;5079609;27;91733;-73
2023/07/27 10:25:14;;;;;;;;;;;;;;;;;;5085748;27;89210;-74
2023/07/27 10:27:56;;;;;;;;;;;;;;;;;;5078099;27;89308;-73
2023/07/27 10:30:21;;;;;;;;;;;;;;;;;;5076537;27;89652;-73
2023/07/27 10:33:06;;;;;;;;;;;;;;;;;;5079620;27;90091;-74
2023/07/27 10:35:51;;;;;;;;;;;;;;;;;;5077331;27;89322;-74
2023/07/27 10:38:19;;;;;;;;;;;;;;;;;;5081341;27;89957;-74
2023/07/27 10:40:44;;;;;;;;;;;;;;;;;;5077142;27;89077;-73
2023/07/27 10:43:10;;;;;;;;;;;;;;;;;;5073586;27;89707;-73
2023/07/27 10:45:35;;;;;;;;;;;;;;;;;;5080316;27;89596;-74
2023/07/27 10:48:00;;;;;;;;;;;;;;;;;;5081786;27;89571;-74
2023/07/27 10:50:25;;;;;;;;;;;;;;;;;;5074259;27;89154;-74
2023/07/27 10:52:51;;;;;;;;;;;;;;;;;;5081803;27;89530;-74
2023/07/27 10:55:17;;;;;;;;;;;;;;;;;;5080034;27;89221;-74
2023/07/27 10:57:42;;;;;;;;;;;;;;;;;;5075847;27;89490;-74
2023/07/27 11:00:09;;;;;;;;;;;;;;;;;;5077187;27;90069;-73
2023/07/27 11:02:35;;;;;;;;;;;;;;;;;;5076036;27;90348;-74
2023/07/27 11:05:05;;;;;;;;;;;;;;;;;;5078724;27;90199;-74
2023/07/27 11:07:31;;;;;;;;;;;;;;;;;;5076700;27;90820;-72
2023/07/27 11:09:57;;;;;;;;;;;;;;;;;;5080181;27;90672;-74
2023/07/27 11:12:23;;;;;;;;;;;;;;;;;;5076602;27;91215;-76
2023/07/27 11:14:48;;;;;;;;;;;;;;;;;;5081034;27;90146;-76
2023/07/27 11:17:13;;;;;;;;;;;;;;;;;;5076366;27;89059;-81
2023/07/27 11:19:39;;;;;;;;;;;;;;;;;;5080808;27;89859;-77
2023/07/27 11:22:04;;;;;;;;;;;;;;;;;;5081194;27;90434;-76
2023/07/27 11:24:30;;;;;;;;;;;;;;;;;;5080464;27;89972;-73
2023/07/27 11:26:55;;;;;;;;;;;;;;;;;;5078756;27;89751;-73
2023/07/27 11:29:20;;;;;;;;;;;;;;;;;;5077462;27;89402;-74
2023/07/27 11:31:53;;;;;;;;;;;;;;;;;;5086236;27;90735;-72
2023/07/27 11:34:21;;;;;;;;;;;;;;;;;;5081003;27;89239;-74
2023/07/27 11:36:50;;;;;;;;;;;;;;;;;;5080519;27;88968;-73
2023/07/27 11:39:15;;;;;;;;;;;;;;;;;;5087295;27;91279;-75
2023/07/27 11:41:41;;;;;;;;;;;;;;;;;;5077790;27;90126;-73
2023/07/27 11:44:06;;;;;;;;;;;;;;;;;;5073247;27;89385;-76
2023/07/27 11:46:39;;;;;;;;;;;;;;;;;;5073050;27;92341;-74
2023/07/27 11:49:04;;;;;;;;;;;;;;;;;;5075740;27;89172;-73
2023/07/27 11:51:30;;;;;;;;;;;;;;;;;;5079066;27;90302;-75
2023/07/27 11:53:55;;;;;;;;;;;;;;;;;;5075209;27;90190;-73
2023/07/27 11:56:20;;;;;;;;;;;;;;;;;;5076419;27;89396;-72
2023/07/27 11:58:46;;;;;;;;;;;;;;;;;;5074487;27;90917;-71
2023/07/27 12:01:12;;;;;;;;;;;;;;;;;;5078804;27;90627;-73
2023/07/27 12:03:39;;;;;;;;;;;;;;;;;;5075909;27;89507;-74
2023/07/27 12:06:06;;;;;;;;;;;;;;;;;;5077466;27;90007;-72
2023/07/27 12:08:34;;;;;;;;;;;;;;;;;;5075495;27;91469;-71
2023/07/27 12:10:59;;;;;;;;;;;;;;;;;;5077274;27;91058;-74
2023/07/27 12:13:25;;;;;;;;;;;;;;;;;;5076527;27;90680;-71
2023/07/27 12:16:01;;;;;;;;;;;;;;;;;;5074450;27;89623;-71
2023/07/27 12:18:27;;;;;;;;;;;;;;;;;;5073458;27;89444;-70
2023/07/27 12:20:54;;;;;;;;;;;;;;;;;;5074679;27;90782;-71
2023/07/27 12:23:19;;;;;;;;;;;;;;;;;;5075917;27;90105;-74
2023/07/27 12:25:44;;;;;;;;;;;;;;;;;;5074108;27;91214;-74
2023/07/27 12:28:09;;;;;;;;;;;;;;;;;;5077550;27;89701;-73
2023/07/27 12:30:34;;;;;;;;;;;;;;;;;;5073394;27;89782;-74
2023/07/27 12:33:00;;;;;;;;;;;;;;;;;;5071907;27;90257;-74
2023/07/27 12:35:25;;;;;;;;;;;;;;;;;;5075983;27;89978;-74
2023/07/27 12:37:50;;;;;;;;;;;;;;;;;;5074963;27;89775;-78
2023/07/27 12:40:15;;;;;;;;;;;;;;;;;;5077710;27;89718;-74
2023/07/27 12:42:41;;;;;;;;;;;;;;;;;;5076678;27;89432;-76
2023/07/27 12:45:07;;;;;;;;;;;;;;;;;;5074636;27;90666;-72
2023/07/27 12:47:32;;;;;;;;;;;;;;;;;;5077842;27;91345;-70
2023/07/27 12:49:58;;;;;;;;;;;;;;;;;;5080641;27;90094;-74
2023/07/27 12:52:23;;;;;;;;;;;;;;;;;;5074345;27;89283;-73
2023/07/27 12:54:48;;;;;;;;;;;;;;;;;;5075340;27;89946;-74
2023/07/27 12:57:13;;;;;;;;;;;;;;;;;;5075913;27;89678;-73
2023/07/27 12:59:40;;;;;;;;;;;;;;;;;;5076535;27;89768;-73
2023/07/27 13:02:05;;;;;;;;;;;;;;;;;;5070708;27;89859;-77
2023/07/27 13:04:31;;;;;;;;;;;;;;;;;;5075166;27;89036;-75
2023/07/27 13:06:56;;;;;;;;;;;;;;;;;;5072715;27;89564;-77
2023/07/27 13:09:21;;;;;;;;;;;;;;;;;;5076268;27;90553;-76
2023/07/27 13:11:46;;;;;;;;;;;;;;;;;;5080915;27;90173;-71
2023/07/27 13:14:12;;;;;;;;;;;;;;;;;;5075534;27;90164;-71
2023/07/27 13:16:37;;;;;;;;;;;;;;;;;;5075133;27;89947;-74
2023/07/27 13:19:04;;;;;;;;;;;;;;;;;;5074346;27;89594;-72
2023/07/27 13:21:29;;;;;;;;;;;;;;;;;;5079159;27;89139;-75
2023/07/27 13:23:54;;;;;;;;;;;;;;;;;;5075579;27;89858;-77
2023/07/27 13:26:19;;;;;;;;;;;;;;;;;;5071377;27;89352;-74
2023/07/27 13:28:45;;;;;;;;;;;;;;;;;;5072712;27;89381;-72
2023/07/27 13:31:11;;;;;;;;;;;;;;;;;;5078569;27;89495;-74
2023/07/27 13:33:36;;;;;;;;;;;;;;;;;;5080187;27;89602;-71
2023/07/27 13:36:01;;;;;;;;;;;;;;;;;;5080025;27;89515;-75
2023/07/27 13:38:26;;;;;;;;;;;;;;;;;;5076563;27;89596;-77
2023/07/27 13:40:52;;;;;;;;;;;;;;;;;;5079503;27;89365;-75
2023/07/27 13:43:17;;;;;;;;;;;;;;;;;;5077260;27;89945;-79
2023/07/27 13:45:43;;;;;;;;;;;;;;;;;;5076770;27;89345;-77
2023/07/27 13:48:08;;;;;;;;;;;;;;;;;;5078550;27;89506;-71
2023/07/27 13:50:34;;;;;;;;;;;;;;;;;;5078642;27;90544;-74
2023/07/27 13:52:59;;;;;;;;;;;;;;;;;;5082658;27;91895;-73
2023/07/27 13:55:25;;;;;;;;;;;;;;;;;;5079751;27;89311;-75
2023/07/27 13:57:50;;;;;;;;;;;;;;;;;;5074936;27;89536;-76
2023/07/27 14:00:15;;;;;;;;;;;;;;;;;;5083398;27;89516;-78
2023/07/27 14:02:41;;;;;;;;;;;;;;;;;;5078263;27;89494;-71
2023/07/27 14:05:06;;;;;;;;;;;;;;;;;;5074483;27;89877;-74
2023/07/27 14:07:31;;;;;;;;;;;;;;;;;;5074844;27;90257;-72
2023/07/27 14:09:57;;;;;;;;;;;;;;;;;;5070788;27;89693;-79
2023/07/27 14:12:22;;;;;;;;;;;;;;;;;;5081732;27;90153;-78
2023/07/27 14:14:48;;;;;;;;;;;;;;;;;;5077352;27;91171;-78
2023/07/27 14:17:13;;;;;;;;;;;;;;;;;;5073237;27;90755;-72
2023/07/27 14:19:38;;;;;;;;;;;;;;;;;;5073228;27;89720;-75
2023/07/27 14:22:03;;;;;;;;;;;;;;;;;;5076215;27;89029;-76
2023/07/27 14:24:29;;;;;;;;;;;;;;;;;;5075811;27;89857;-75
2023/07/27 14:26:54;;;;;;;;;;;;;;;;;;5080478;27;89599;-76
2023/07/27 14:29:19;;;;;;;;;;;;;;;;;;5075658;27;93458;-74
2023/07/27 14:31:44;;;;;;;;;;;;;;;;;;5081183;27;89578;-76
2023/07/27 14:34:10;;;;;;;;;;;;;;;;;;5077696;27;90109;-72
2023/07/27 14:36:35;;;;;;;;;;;;;;;;;;5091415;27;91195;-71
2023/07/27 14:39:01;;;;;;;;;;;;;;;;;;5077277;27;89542;-70
2023/07/27 14:41:26;;;;;;;;;;;;;;;;;;5075856;27;90037;-75
2023/07/27 14:43:52;;;;;;;;;;;;;;;;;;5079888;27;89793;-77
2023/07/27 14:46:18;;;;;;;;;;;;;;;;;;5078759;27;89806;-76
2023/07/27 14:48:43;;;;;;;;;;;;;;;;;;5074303;27;90429;-72
2023/07/27 14:51:08;;;;;;;;;;;;;;;;;;5076951;27;89482;-77
2023/07/27 14:53:34;;;;;;;;;;;;;;;;;;5075799;27;89615;-76
2023/07/27 14:55:59;;;;;;;;;;;;;;;;;;5074017;27;90811;-77
2023/07/27 14:58:25;;;;;;;;;;;;;;;;;;5077838;27;90132;-76
2023/07/27 15:00:50;;;;;;;;;;;;;;;;;;5077070;27;89052;-74
2023/07/27 15:03:15;;;;;;;;;;;;;;;;;;5074269;27;90746;-73
2023/07/27 15:05:41;;;;;;;;;;;;;;;;;;5078973;27;89889;-74
2023/07/27 15:08:06;;;;;;;;;;;;;;;;;;5077557;27;89542;-74
2023/07/27 15:10:32;;;;;;;;;;;;;;;;;;5080429;27;89247;-72
2023/07/27 15:12:58;;;;;;;;;;;;;;;;;;5079693;27;90052;-74
2023/07/27 15:15:24;;;;;;;;;;;;;;;;;;5078427;27;90622;-75
2023/07/27 15:17:49;;;;;;;;;;;;;;;;;;5073344;27;89537;-75
2023/07/27 15:20:14;;;;;;;;;;;;;;;;;;5074978;27;90271;-75
2023/07/27 15:22:40;;;;;;;;;;;;;;;;;;5074989;27;91721;-79
2023/07/27 15:25:05;;;;;;;;;;;;;;;;;;5078782;27;89630;-77
2023/07/27 15:27:30;;;;;;;;;;;;;;;;;;5085549;27;89452;-76
2023/07/27 15:29:56;;;;;;;;;;;;;;;;;;5085263;27;89901;-78
2023/07/27 15:32:21;;;;;;;;;;;;;;;;;;5076810;27;89616;-76
2023/07/27 15:34:47;;;;;;;;;;;;;;;;;;5074773;27;89945;-76
2023/07/27 15:37:12;;;;;;;;;;;;;;;;;;5078339;27;89381;-75
2023/07/27 15:39:39;;;;;;;;;;;;;;;;;;5077475;27;90362;-77
2023/07/27 15:42:04;;;;;;;;;;;;;;;;;;5076790;27;90591;-76
2023/07/27 15:44:29;;;;;;;;;;;;;;;;;;5075209;27;90735;-77
2023/07/27 15:46:54;;;;;;;;;;;;;;;;;;5077562;27;91190;-78
2023/07/27 15:49:20;;;;;;;;;;;;;;;;;;5077104;27;89698;-77
2023/07/27 15:51:45;;;;;;;;;;;;;;;;;;5078271;27;89319;-74
2023/07/27 15:54:10;;;;;;;;;;;;;;;;;;5069226;27;89663;-75
2023/07/27 15:56:35;;;;;;;;;;;;;;;;;;5074991;27;89175;-73
2023/07/27 15:59:00;;;;;;;;;;;;;;;;;;5074240;27;89098;-74
2023/07/27 16:01:31;;;;;;;;;;;;;;;;;;5073629;27;89534;-74
2023/07/27 16:03:56;;;;;;;;;;;;;;;;;;5069892;27;89079;-75
2023/07/27 16:06:21;;;;;;;;;;;;;;;;;;5076884;27;91731;-74
2023/07/27 16:08:46;;;;;;;;;;;;;;;;;;5074646;27;89362;-75
2023/07/27 16:11:11;;;;;;;;;;;;;;;;;;5076204;27;91047;-73
2023/07/27 16:13:37;;;;;;;;;;;;;;;;;;5077293;27;90017;-74
2023/07/27 16:16:02;;;;;;;;;;;;;;;;;;5080061;27;89116;-75
2023/07/27 16:18:28;;;;;;;;;;;;;;;;;;5076858;27;89484;-76
2023/07/27 16:20:53;;;;;;;;;;;;;;;;;;5076873;27;90411;-74
2023/07/27 16:23:18;;;;;;;;;;;;;;;;;;5076789;27;90877;-76
2023/07/27 16:25:44;;;;;;;;;;;;;;;;;;5076105;27;89954;-74
2023/07/27 16:28:09;;;;;;;;;;;;;;;;;;5075357;27;90868;-73
2023/07/27 16:30:35;;;;;;;;;;;;;;;;;;5079965;27;90938;-73
2023/07/27 16:33:00;;;;;;;;;;;;;;;;;;5077474;27;90504;-74
2023/07/27 16:35:28;;;;;;;;;;;;;;;;;;5076407;27;90032;-71
2023/07/27 16:37:53;;;;;;;;;;;;;;;;;;5072620;27;89139;-76